createdAt,value
2023-04-04T00:00:38.972Z,97185.38
2023-04-04T00:03:06.668Z,97183.28
2023-04-04T00:05:35.440Z,97174.97
2023-04-04T00:08:03.946Z,97172.38
2023-04-04T00:10:31.251Z,97165.09
2023-04-04T00:12:58.052Z,97176.44
2023-04-04T00:15:24.977Z,97168.53
2023-04-04T00:17:51.876Z,97180.25
2023-04-04T00:20:18.752Z,97173.25
2023-04-04T00:22:45.807Z,97172.56
2023-04-04T00:25:12.670Z,97165.16
2023-04-04T00:27:39.502Z,97166.13
2023-04-04T00:30:07.596Z,97160.91
2023-04-04T00:32:34.454Z,97166.94
2023-04-04T00:35:01.337Z,97164.34
2023-04-04T00:37:28.227Z,97160.72
2023-04-04T00:39:55.178Z,97167.53
2023-04-04T00:42:22.408Z,97155.59
2023-04-04T00:44:49.364Z,97158.88
2023-04-04T00:47:16.620Z,97145.72
2023-04-04T00:49:46.479Z,97147.25
2023-04-04T00:52:13.692Z,97153.78
2023-04-04T00:54:40.857Z,97143.31
2023-04-04T00:57:08.474Z,97146.19
2023-04-04T00:59:36.203Z,97152.13
2023-04-04T01:02:03.127Z,97148.28
2023-04-04T01:04:31.418Z,97149.00
2023-04-04T01:06:58.943Z,97137.53
2023-04-04T01:09:26.029Z,97136.00
2023-04-04T01:11:55.653Z,97138.81
2023-04-04T01:14:23.283Z,97137.88
2023-04-04T01:16:51.531Z,97140.13
2023-04-04T01:19:49.798Z,97131.69
2023-04-04T01:22:18.323Z,97132.88
2023-04-04T01:24:47.172Z,97131.06
2023-04-04T01:27:14.555Z,97123.78
2023-04-04T01:29:41.453Z,97126.09
2023-04-04T01:32:32.123Z,97130.59
2023-04-04T01:35:23.279Z,97123.03
2023-04-04T01:38:23.848Z,97115.00
2023-04-04T01:40:55.890Z,97113.34
2023-04-04T01:43:23.435Z,97118.31
2023-04-04T01:45:50.819Z,97112.72
2023-04-04T01:48:17.705Z,97114.56
2023-04-04T01:50:44.540Z,97113.25
2023-04-04T01:53:11.390Z,97112.19
2023-04-04T01:55:38.158Z,97106.19
2023-04-04T01:58:04.966Z,97110.00
2023-04-04T02:00:31.799Z,97112.75
2023-04-04T02:02:59.107Z,97109.22
2023-04-04T02:05:25.975Z,97109.22
2023-04-04T02:07:52.822Z,97115.28
2023-04-04T02:10:19.992Z,97108.88
2023-04-04T02:12:47.241Z,97112.72
2023-04-04T02:15:14.150Z,97111.28
2023-04-04T02:17:41.385Z,97107.22
2023-04-04T02:20:08.933Z,97113.19
2023-04-04T02:22:35.771Z,97107.16
2023-04-04T02:25:02.909Z,97103.31
2023-04-04T02:27:29.786Z,97097.63
2023-04-04T02:29:56.665Z,97092.09
2023-04-04T02:32:24.244Z,97094.69
2023-04-04T02:34:51.645Z,97097.78
2023-04-04T02:37:18.565Z,97094.13
2023-04-04T02:39:45.614Z,97094.25
2023-04-04T02:42:12.401Z,97094.66
2023-04-04T02:44:39.197Z,97098.34
2023-04-04T02:47:07.428Z,97094.00
2023-04-04T02:49:34.303Z,97102.66
2023-04-04T02:52:01.279Z,97095.09
2023-04-04T02:54:28.065Z,97096.47
2023-04-04T02:56:55.364Z,97094.88
2023-04-04T02:59:22.322Z,97095.56
2023-04-04T03:01:49.230Z,97083.81
2023-04-04T03:04:16.182Z,97088.31
2023-04-04T03:06:43.325Z,97098.78
2023-04-04T03:09:10.677Z,97091.06
2023-04-04T03:11:37.504Z,97086.16
2023-04-04T03:14:04.315Z,97101.78
2023-04-04T03:16:31.305Z,97089.41
2023-04-04T03:18:58.488Z,97090.19
2023-04-04T03:21:25.903Z,97096.13
2023-04-04T03:23:52.816Z,97097.03
2023-04-04T03:26:19.708Z,97098.25
2023-04-04T03:28:46.552Z,97093.97
2023-04-04T03:31:13.468Z,97089.13
2023-04-04T03:33:42.601Z,97091.84
2023-04-04T03:36:13.232Z,97092.34
2023-04-04T03:38:40.975Z,97088.81
2023-04-04T03:41:08.398Z,97095.84
2023-04-04T03:43:35.576Z,97093.97
2023-04-04T03:46:04.295Z,97097.50
2023-04-04T03:48:31.864Z,97093.16
2023-04-04T03:50:58.801Z,97099.13
2023-04-04T03:53:26.819Z,97106.66
2023-04-04T03:55:56.615Z,97104.56
2023-04-04T03:58:24.459Z,97105.72
2023-04-04T04:00:51.328Z,97104.09
2023-04-04T04:03:18.260Z,97102.69
2023-04-04T04:05:45.089Z,97099.84
2023-04-04T04:08:12.239Z,97098.94
2023-04-04T04:10:39.560Z,97103.63
2023-04-04T04:13:06.747Z,97102.69
2023-04-04T04:15:33.528Z,97104.94
2023-04-04T04:18:00.489Z,97102.69
2023-04-04T04:20:27.375Z,97102.94
2023-04-04T04:22:54.441Z,97106.97
2023-04-04T04:25:21.501Z,97104.34
2023-04-04T04:27:48.572Z,97104.34
2023-04-04T04:30:15.493Z,97106.47
2023-04-04T04:32:42.358Z,97099.66
2023-04-04T04:35:09.930Z,97105.44
2023-04-04T04:37:36.751Z,97106.00
2023-04-04T04:40:03.819Z,97113.78
2023-04-04T04:42:30.815Z,97104.34
2023-04-04T04:44:57.642Z,97110.41
2023-04-04T04:47:24.657Z,97103.19
2023-04-04T04:49:51.887Z,97109.78
2023-04-04T04:52:19.280Z,97106.47
2023-04-04T04:54:46.165Z,97107.19
2023-04-04T04:57:13.083Z,97103.91
2023-04-04T04:59:41.244Z,97107.44
2023-04-04T05:02:08.182Z,97108.84
2023-04-04T05:04:35.229Z,97107.16
2023-04-04T05:07:02.170Z,97112.84
2023-04-04T05:09:29.301Z,97113.50
2023-04-04T05:11:56.408Z,97121.00
2023-04-04T05:14:23.552Z,97113.19
2023-04-04T05:16:50.607Z,97126.38
2023-04-04T05:19:17.478Z,97121.41
2023-04-04T05:21:44.339Z,97123.59
2023-04-04T05:24:11.245Z,97140.66
2023-04-04T05:26:38.125Z,97137.56
2023-04-04T05:29:05.029Z,97124.19
2023-04-04T05:31:31.832Z,97129.28
2023-04-04T05:33:58.806Z,97127.16
2023-04-04T05:36:25.666Z,97124.06
2023-04-04T05:38:52.556Z,97119.22
2023-04-04T05:41:19.456Z,97118.59
2023-04-04T05:43:46.507Z,97132.94
2023-04-04T05:46:13.462Z,97137.38
2023-04-04T05:48:40.394Z,97128.50
2023-04-04T05:51:07.221Z,97141.84
2023-04-04T05:53:34.812Z,97135.59
2023-04-04T05:56:01.705Z,97131.94
2023-04-04T05:58:28.514Z,97129.25
2023-04-04T06:00:55.965Z,97133.78
2023-04-04T06:03:22.883Z,97133.28
2023-04-04T06:05:53.059Z,97131.91
2023-04-04T06:08:20.059Z,97138.34
2023-04-04T06:10:46.854Z,97131.63
2023-04-04T06:13:13.637Z,97124.47
2023-04-04T06:15:40.475Z,97126.47
2023-04-04T06:18:07.811Z,97124.63
2023-04-04T06:20:34.793Z,97119.81
2023-04-04T06:23:04.539Z,97132.16
2023-04-04T06:25:32.178Z,97133.06
2023-04-04T06:27:59.629Z,97126.50
2023-04-04T06:30:26.671Z,97130.13
2023-04-04T06:32:53.549Z,97125.72
2023-04-04T06:35:21.458Z,97126.81
2023-04-04T06:37:48.732Z,97125.59
2023-04-04T06:40:15.726Z,97133.75
2023-04-04T06:42:53.880Z,97128.84
2023-04-04T06:45:21.096Z,97124.25
2023-04-04T06:47:50.254Z,97128.00
2023-04-04T06:50:17.468Z,97125.34
2023-04-04T06:52:44.718Z,97125.94
2023-04-04T06:55:13.147Z,97124.03
2023-04-04T06:57:40.005Z,97117.78
2023-04-04T07:00:07.821Z,97125.03
2023-04-04T07:02:34.810Z,97125.69
2023-04-04T07:05:02.068Z,97127.97
2023-04-04T07:07:29.975Z,97125.38
2023-04-04T07:09:57.032Z,97119.50
2023-04-04T07:12:23.817Z,97125.69
2023-04-04T07:14:50.766Z,97124.50
2023-04-04T07:17:24.651Z,97130.75
2023-04-04T07:19:52.150Z,97120.19
2023-04-04T07:22:19.142Z,97118.34
2023-04-04T07:24:46.031Z,97123.59
2023-04-04T07:27:15.264Z,97123.50
2023-04-04T07:29:42.579Z,97119.19
2023-04-04T07:32:09.537Z,97123.13
2023-04-04T07:34:36.553Z,97113.03
2023-04-04T07:37:03.663Z,97120.41
2023-04-04T07:39:31.283Z,97131.72
2023-04-04T07:41:58.083Z,97127.50
2023-04-04T07:44:24.928Z,97122.72
2023-04-04T07:47:02.444Z,97123.38
2023-04-04T07:49:35.886Z,97118.84
2023-04-04T07:52:03.224Z,97130.63
2023-04-04T07:54:30.066Z,97111.00
2023-04-04T07:56:56.956Z,97117.38
2023-04-04T07:59:23.817Z,97115.41
2023-04-04T08:01:50.734Z,97122.75
2023-04-04T08:04:17.684Z,97130.44
2023-04-04T08:06:44.525Z,97108.19
2023-04-04T08:09:11.339Z,97118.97
2023-04-04T08:11:38.371Z,97117.88
2023-04-04T08:14:06.000Z,97115.69
2023-04-04T08:16:33.726Z,97108.03
2023-04-04T08:19:00.662Z,97120.00
2023-04-04T08:21:27.589Z,97111.78
2023-04-04T08:23:54.625Z,97119.84
2023-04-04T08:26:22.012Z,97112.63
2023-04-04T08:28:49.245Z,97110.81
2023-04-04T08:31:16.832Z,97113.31
2023-04-04T08:33:47.773Z,97112.88
2023-04-04T08:36:16.190Z,97113.03
2023-04-04T08:38:43.388Z,97110.75
2023-04-04T08:41:12.130Z,97110.81
2023-04-04T08:43:41.561Z,97113.47
2023-04-04T08:46:12.667Z,97121.00
2023-04-04T08:48:43.349Z,97119.59
2023-04-04T08:51:12.837Z,97118.66
2023-04-04T08:53:40.438Z,97115.31
2023-04-04T08:56:07.339Z,97117.22
2023-04-04T08:58:34.489Z,97124.16
2023-04-04T09:01:01.927Z,97127.88
2023-04-04T09:03:33.008Z,97115.38
2023-04-04T09:06:00.048Z,97111.78
2023-04-04T09:08:27.074Z,97114.22
2023-04-04T09:10:54.887Z,97115.03
2023-04-04T09:13:22.854Z,97110.97
2023-04-04T09:15:54.305Z,97116.38
2023-04-04T09:18:21.276Z,97116.84
2023-04-04T09:20:48.655Z,97108.84
2023-04-04T09:23:21.008Z,97108.59
2023-04-04T09:26:03.738Z,97115.31
2023-04-04T09:28:33.505Z,97119.53
2023-04-04T09:31:05.438Z,97129.03
2023-04-04T09:33:35.622Z,97123.34
2023-04-04T09:36:10.213Z,97128.41
2023-04-04T09:38:45.576Z,97122.22
2023-04-04T09:41:16.438Z,97120.88
2023-04-04T09:43:45.831Z,97114.81
2023-04-04T09:46:12.904Z,97121.69
2023-04-04T09:48:40.218Z,97127.03
2023-04-04T09:51:12.520Z,97125.56
2023-04-04T09:53:42.110Z,97126.63
2023-04-04T09:56:09.358Z,97135.19
2023-04-04T09:58:46.349Z,97123.78
2023-04-04T10:01:20.066Z,97121.16
2023-04-04T10:03:56.547Z,97125.06
2023-04-04T10:06:24.016Z,97123.09
2023-04-04T10:08:51.127Z,97133.22
2023-04-04T10:11:32.209Z,97130.91
2023-04-04T10:14:00.800Z,97130.72
2023-04-04T10:16:32.249Z,97125.50
2023-04-04T10:19:01.997Z,97128.69
2023-04-04T10:21:29.367Z,97133.63
2023-04-04T10:23:58.851Z,97127.56
2023-04-04T10:26:26.343Z,97128.13
2023-04-04T10:28:53.502Z,97126.53
2023-04-04T10:31:28.258Z,97130.69
2023-04-04T10:34:28.762Z,97128.50
2023-04-04T10:37:09.554Z,97126.41
2023-04-04T10:39:56.013Z,97131.31
2023-04-04T10:42:23.632Z,97116.88
2023-04-04T10:44:51.304Z,97113.06
2023-04-04T10:47:26.178Z,97130.47
2023-04-04T10:49:53.302Z,97129.66
2023-04-04T10:52:22.904Z,97128.22
2023-04-04T10:54:57.901Z,97115.38
2023-04-04T10:57:25.259Z,97120.13
2023-04-04T11:00:10.552Z,97115.06
2023-04-04T11:02:53.113Z,97121.56
2023-04-04T11:05:27.896Z,97102.78
2023-04-04T11:08:10.878Z,97103.53
2023-04-04T11:10:49.840Z,97112.75
2023-04-04T11:13:35.292Z,97119.75
2023-04-04T11:16:07.954Z,97113.97
2023-04-04T11:18:43.910Z,97107.34
2023-04-04T11:21:20.386Z,97106.66
2023-04-04T11:23:59.344Z,97100.53
2023-04-04T11:26:28.712Z,97099.19
2023-04-04T11:29:04.064Z,97099.41
2023-04-04T11:31:45.082Z,97087.66
2023-04-04T11:34:30.582Z,97093.53
2023-04-04T11:36:58.029Z,97092.00
2023-04-04T11:39:31.671Z,97077.44
2023-04-04T11:42:10.183Z,97086.66
2023-04-04T11:45:04.934Z,97088.47
2023-04-04T11:47:31.894Z,97079.38
2023-04-04T11:50:02.157Z,97081.72
2023-04-04T11:52:35.526Z,97081.63
2023-04-04T11:55:02.612Z,97074.72
2023-04-04T11:57:29.504Z,97073.88
2023-04-04T11:59:57.568Z,97083.22
2023-04-04T12:02:31.928Z,97082.25
2023-04-04T12:04:59.609Z,97085.06
2023-04-04T12:07:29.330Z,97081.63
2023-04-04T12:09:57.572Z,97074.16
2023-04-04T12:12:24.800Z,97074.00
2023-04-04T12:14:56.196Z,97084.38
2023-04-04T12:17:29.914Z,97073.66
2023-04-04T12:19:56.801Z,97082.53
2023-04-04T12:22:23.637Z,97073.19
2023-04-04T12:24:50.463Z,97075.16
2023-04-04T12:27:17.334Z,97078.53
2023-04-04T12:29:45.545Z,97075.16
2023-04-04T12:32:14.343Z,97078.19
2023-04-04T12:34:48.516Z,97081.00
2023-04-04T12:37:19.028Z,97080.22
2023-04-04T12:39:49.713Z,97074.63
2023-04-04T12:42:26.360Z,97090.63
2023-04-04T12:44:54.671Z,97077.06
2023-04-04T12:47:24.541Z,97078.94
2023-04-04T12:49:57.167Z,97078.91
2023-04-04T12:52:32.398Z,97077.38
2023-04-04T12:55:08.932Z,97076.84
2023-04-04T12:57:38.596Z,97080.84
2023-04-04T13:00:09.020Z,97084.25
2023-04-04T13:02:38.611Z,97076.66
2023-04-04T13:05:07.391Z,97066.56
2023-04-04T13:07:44.324Z,97071.50
2023-04-04T13:10:14.950Z,97074.56
2023-04-04T13:12:56.830Z,97070.09
2023-04-04T13:15:24.994Z,97068.75
2023-04-04T13:17:52.671Z,97061.84
2023-04-04T13:20:21.257Z,97064.09
2023-04-04T13:22:48.269Z,97049.25
2023-04-04T13:25:15.113Z,97036.09
2023-04-04T13:27:42.028Z,97042.78
2023-04-04T13:30:10.034Z,97046.97
2023-04-04T13:32:37.920Z,97047.97
2023-04-04T13:35:05.282Z,97046.72
2023-04-04T13:37:32.122Z,97055.28
2023-04-04T13:39:58.924Z,97039.97
2023-04-04T13:42:30.031Z,97028.09
2023-04-04T13:44:57.315Z,97032.69
2023-04-04T13:47:27.343Z,97027.91
2023-04-04T13:49:55.124Z,97024.22
2023-04-04T13:52:22.241Z,97026.03
2023-04-04T13:54:49.822Z,97020.00
2023-04-04T13:57:16.671Z,97019.25
2023-04-04T13:59:43.540Z,97014.16
2023-04-04T14:02:10.681Z,97024.78
2023-04-04T14:04:37.655Z,97023.00
2023-04-04T14:07:04.768Z,97033.13
2023-04-04T14:09:31.706Z,97027.06
2023-04-04T14:11:58.556Z,97035.88
2023-04-04T14:14:25.551Z,97035.91
2023-04-04T14:16:52.823Z,97031.53
2023-04-04T14:19:19.626Z,97031.50
2023-04-04T14:21:46.465Z,97027.38
2023-04-04T14:24:13.546Z,97029.84
2023-04-04T14:26:40.371Z,97026.06
2023-04-04T14:29:07.183Z,97020.66
2023-04-04T14:31:34.910Z,97018.50
2023-04-04T14:34:03.588Z,97017.53
2023-04-04T14:36:31.589Z,97013.16
2023-04-04T14:38:58.797Z,97009.97
2023-04-04T14:41:25.662Z,97017.00
2023-04-04T14:43:52.464Z,97020.31
2023-04-04T14:46:19.873Z,97015.78
2023-04-04T14:48:47.677Z,97010.19
2023-04-04T14:51:14.738Z,97015.09
2023-04-04T14:53:42.118Z,97016.75
2023-04-04T14:56:08.995Z,97012.78
2023-04-04T14:58:35.924Z,97016.75
2023-04-04T15:01:03.671Z,97015.25
2023-04-04T15:03:30.690Z,97005.34
2023-04-04T15:05:57.780Z,97009.94
2023-04-04T15:08:24.650Z,97015.25
2023-04-04T15:10:51.650Z,97013.19
2023-04-04T15:13:18.547Z,97014.75
2023-04-04T15:15:45.540Z,97009.88
2023-04-04T15:18:12.467Z,97016.28
2023-04-04T15:20:40.212Z,97015.34
2023-04-04T15:23:07.276Z,97019.53
2023-04-04T15:25:34.644Z,97010.25
2023-04-04T15:28:01.589Z,97011.22
2023-04-04T15:30:29.010Z,97011.09
2023-04-04T15:32:56.946Z,97001.28
2023-04-04T15:35:24.257Z,97006.69
2023-04-04T15:37:51.298Z,96995.91
2023-04-04T15:40:19.364Z,97000.75
2023-04-04T15:42:48.116Z,96996.13
2023-04-04T15:45:15.613Z,97000.19
2023-04-04T15:47:43.523Z,97000.38
2023-04-04T15:50:11.806Z,97004.63
2023-04-04T15:52:39.633Z,97003.78
2023-04-04T15:55:17.110Z,96999.53
2023-04-04T15:57:44.941Z,97004.88
2023-04-04T16:00:13.835Z,97000.13
2023-04-04T16:02:40.976Z,97006.88
2023-04-04T16:05:08.549Z,96999.50
2023-04-04T16:07:35.866Z,97003.41
2023-04-04T16:10:03.765Z,96997.91
2023-04-04T16:12:30.552Z,96986.53
2023-04-04T16:14:57.534Z,96994.47
2023-04-04T16:17:26.169Z,96996.16
2023-04-04T16:19:53.041Z,97004.28
2023-04-04T16:22:19.907Z,97005.16
2023-04-04T16:24:46.769Z,97004.56
2023-04-04T16:27:13.630Z,97005.75
2023-04-04T16:29:40.599Z,97004.56
2023-04-04T16:32:08.184Z,97003.63
2023-04-04T16:34:36.818Z,97002.75
2023-04-04T16:37:04.408Z,96995.88
2023-04-04T16:39:31.304Z,96994.31
2023-04-04T16:41:58.174Z,96993.34
2023-04-04T16:44:25.013Z,96987.88
2023-04-04T16:46:51.876Z,96995.47
2023-04-04T16:49:18.720Z,96989.28
2023-04-04T16:51:46.175Z,96984.72
2023-04-04T16:54:13.654Z,96990.06
2023-04-04T16:56:40.533Z,96980.97
2023-04-04T16:59:07.404Z,96980.09
2023-04-04T17:01:34.315Z,96986.50
2023-04-04T17:04:01.190Z,96976.50
2023-04-04T17:06:28.107Z,96979.56
2023-04-04T17:08:54.976Z,96981.56
2023-04-04T17:11:21.954Z,96990.66
2023-04-04T17:13:48.752Z,96983.56
2023-04-04T17:16:15.654Z,96982.53
2023-04-04T17:18:42.752Z,96979.50
2023-04-04T17:21:09.611Z,96986.00
2023-04-04T17:23:36.450Z,96977.31
2023-04-04T17:26:03.355Z,96984.44
2023-04-04T17:28:30.893Z,96983.16
2023-04-04T17:30:59.422Z,96978.59
2023-04-04T17:33:27.344Z,96982.22
2023-04-04T17:35:55.469Z,96982.53
2023-04-04T17:38:22.390Z,96985.16
2023-04-04T17:40:49.719Z,96974.00
2023-04-04T17:43:16.881Z,96986.06
2023-04-04T17:45:44.874Z,96982.50
2023-04-04T17:48:12.374Z,96974.94
2023-04-04T17:50:39.546Z,96985.53
2023-04-04T17:53:07.409Z,96977.44
2023-04-04T17:55:35.340Z,96972.75
2023-04-04T17:58:02.425Z,96984.72
2023-04-04T18:00:30.436Z,96981.94
2023-04-04T18:02:57.416Z,96974.31
2023-04-04T18:05:24.338Z,96972.03
2023-04-04T18:07:51.281Z,96975.59
2023-04-04T18:10:18.360Z,96972.28
2023-04-04T18:12:46.481Z,96971.47
2023-04-04T18:15:14.009Z,96970.56
2023-04-04T18:17:42.008Z,96977.19
2023-04-04T18:20:09.401Z,96976.03
2023-04-04T18:22:36.404Z,96971.00
2023-04-04T18:25:04.133Z,96974.91
2023-04-04T18:27:31.178Z,96977.13
2023-04-04T18:29:57.968Z,96971.38
2023-04-04T18:32:26.548Z,96976.09
2023-04-04T18:34:53.459Z,96975.34
2023-04-04T18:37:20.500Z,96960.88
2023-04-04T18:39:47.308Z,96976.00
2023-04-04T18:42:14.857Z,96977.84
2023-04-04T18:44:42.005Z,96975.16
2023-04-04T18:47:09.117Z,96982.03
2023-04-04T18:49:36.249Z,96980.06
2023-04-04T18:52:03.505Z,96977.91
2023-04-04T18:54:30.443Z,96981.09
2023-04-04T18:56:57.677Z,96983.94
2023-04-04T18:59:25.077Z,96986.41
2023-04-04T19:01:56.371Z,96989.97
2023-04-04T19:04:23.559Z,96981.78
2023-04-04T19:06:53.074Z,96981.53
2023-04-04T19:09:21.465Z,96984.31
2023-04-04T19:11:49.247Z,96990.91
2023-04-04T19:14:16.204Z,96991.22
2023-04-04T19:16:43.136Z,96990.38
2023-04-04T19:19:10.076Z,96983.25
2023-04-04T19:21:37.107Z,96989.44
2023-04-04T19:24:04.453Z,96985.75
2023-04-04T19:26:31.430Z,96983.81
2023-04-04T19:28:59.183Z,96983.41
2023-04-04T19:31:32.846Z,96986.00
2023-04-04T19:34:03.327Z,96981.94
2023-04-04T19:36:36.594Z,96981.63
2023-04-04T19:39:04.923Z,96981.94
2023-04-04T19:41:39.812Z,96986.97
2023-04-04T19:44:19.523Z,96987.66
2023-04-04T19:46:47.711Z,96987.38
2023-04-04T19:49:16.574Z,96990.97
2023-04-04T19:51:51.104Z,96981.09
2023-04-04T19:54:29.418Z,96985.88
2023-04-04T19:57:07.658Z,96991.50
2023-04-04T19:59:49.837Z,96978.63
2023-04-04T20:02:47.839Z,96985.78
2023-04-04T20:05:29.543Z,96991.94
2023-04-04T20:07:56.397Z,96977.53
2023-04-04T20:10:41.068Z,96991.78
2023-04-04T20:13:08.745Z,96989.03
2023-04-04T20:16:01.717Z,96986.44
2023-04-04T20:18:32.203Z,96986.44
2023-04-04T20:21:15.371Z,96987.53
2023-04-04T20:23:55.610Z,96996.44
2023-04-04T20:26:59.950Z,96993.69
2023-04-04T20:29:30.249Z,96990.47
2023-04-04T20:32:07.840Z,96997.25
2023-04-04T20:34:42.388Z,96987.59
2023-04-04T20:37:11.306Z,96995.25
2023-04-04T20:39:55.795Z,96994.19
2023-04-04T20:42:40.240Z,96992.81
2023-04-04T20:45:10.420Z,96996.13
2023-04-04T20:47:50.019Z,96995.28
2023-04-04T20:50:16.979Z,96997.78
2023-04-04T20:53:19.235Z,96993.38
2023-04-04T20:55:46.437Z,96998.50
2023-04-04T20:58:30.944Z,96994.97
2023-04-04T21:01:00.554Z,97001.22
2023-04-04T21:03:30.490Z,96997.13
2023-04-04T21:06:09.614Z,97003.41
2023-04-04T21:08:41.255Z,96995.47
2023-04-04T21:11:08.241Z,97003.50
2023-04-04T21:13:42.775Z,96999.28
2023-04-04T21:16:16.886Z,97006.09
2023-04-04T21:18:44.523Z,96990.28
2023-04-04T21:21:20.628Z,96995.09
2023-04-04T21:23:52.980Z,97003.16
2023-04-04T21:26:35.764Z,96990.34
2023-04-04T21:29:22.678Z,96991.47
2023-04-04T21:31:54.421Z,96991.19
2023-04-04T21:34:26.447Z,96995.69
2023-04-04T21:36:56.279Z,96989.81
2023-04-04T21:39:30.393Z,96998.56
2023-04-04T21:42:01.528Z,96999.38
2023-04-04T21:44:30.256Z,96995.00
2023-04-04T21:46:57.622Z,96990.84
2023-04-04T21:49:25.459Z,96997.25
2023-04-04T21:51:52.331Z,96987.00
2023-04-04T21:54:19.874Z,96995.72
2023-04-04T21:56:47.142Z,96990.25
2023-04-04T21:59:14.122Z,96985.88
2023-04-04T22:01:41.154Z,96989.19
2023-04-04T22:04:08.198Z,96988.34
2023-04-04T22:06:35.033Z,96986.69
2023-04-04T22:09:03.003Z,96988.47
2023-04-04T22:11:29.969Z,96979.56
2023-04-04T22:14:04.136Z,96983.81
2023-04-04T22:16:32.248Z,96987.22
2023-04-04T22:19:01.007Z,96991.00
2023-04-04T22:21:28.384Z,96976.53
2023-04-04T22:24:01.895Z,96975.00
2023-04-04T22:26:32.626Z,96987.34
2023-04-04T22:29:02.935Z,96982.25
2023-04-04T22:31:30.407Z,96979.91
2023-04-04T22:33:57.277Z,96976.88
2023-04-04T22:36:25.122Z,96970.84
2023-04-04T22:38:56.902Z,96987.88
2023-04-04T22:41:27.609Z,96967.53
2023-04-04T22:43:54.903Z,96970.84
2023-04-04T22:46:21.874Z,96971.09
2023-04-04T22:48:48.838Z,96976.78
2023-04-04T22:51:16.358Z,96965.84
2023-04-04T22:53:44.270Z,96963.13
2023-04-04T22:56:11.841Z,96965.34
2023-04-04T22:58:38.948Z,96962.09
2023-04-04T23:01:06.522Z,96963.22
2023-04-04T23:03:33.719Z,96969.53
2023-04-04T23:06:00.572Z,96964.34
2023-04-04T23:08:27.464Z,96962.97
2023-04-04T23:10:54.367Z,96966.53
2023-04-04T23:13:21.906Z,96963.69
2023-04-04T23:15:49.527Z,96959.16
2023-04-04T23:18:16.477Z,96954.81
2023-04-04T23:20:43.724Z,96955.63
2023-04-04T23:23:10.729Z,96945.25
2023-04-04T23:25:37.580Z,96948.91
2023-04-04T23:28:04.439Z,96945.97
2023-04-04T23:30:31.408Z,96945.38
2023-04-04T23:32:58.296Z,96943.63
2023-04-04T23:35:25.348Z,96944.56
2023-04-04T23:37:52.152Z,96949.50
2023-04-04T23:40:19.067Z,96942.28
2023-04-04T23:42:45.904Z,96943.09
2023-04-04T23:45:12.834Z,96945.69
2023-04-04T23:47:39.746Z,96942.84
2023-04-04T23:50:07.482Z,96937.66
2023-04-04T23:52:35.127Z,96935.47
2023-04-04T23:55:01.934Z,96937.59
2023-04-04T23:57:28.836Z,96937.31
2023-04-04T23:59:55.818Z,96928.28
